sensor_id;sensor_type;location;lat;lon;timestamp;temperature;humidity
22678;DHT22;26259;50.214;18.620;2022-12-17T00:00:04;-2.80;99.90
22678;DHT22;26259;50.214;18.620;2022-12-17T00:02:48;-2.80;99.90
22678;DHT22;26259;50.214;18.620;2022-12-17T00:05:32;-2.80;99.90
22678;DHT22;26259;50.214;18.620;2022-12-17T00:08:16;-2.80;99.90
22678;DHT22;26259;50.214;18.620;2022-12-17T00:11:00;-2.80;99.90
22678;DHT22;26259;50.214;18.620;2022-12-17T00:13:44;-2.80;99.90
22678;DHT22;26259;50.214;18.620;2022-12-17T00:16:28;-2.70;99.90
22678;DHT22;26259;50.214;18.620;2022-12-17T00:19:12;-2.80;99.90
22678;DHT22;26259;50.214;18.620;2022-12-17T00:21:56;-2.80;99.90
22678;DHT22;26259;50.214;18.620;2022-12-17T00:24:40;-2.80;99.90
22678;DHT22;26259;50.214;18.620;2022-12-17T00:27:24;-2.80;99.90
22678;DHT22;26259;50.214;18.620;2022-12-17T00:30:09;-2.80;99.90
22678;DHT22;26259;50.214;18.620;2022-12-17T00:32:53;-2.80;99.90
22678;DHT22;26259;50.214;18.620;2022-12-17T00:35:37;-2.80;99.90
22678;DHT22;26259;50.214;18.620;2022-12-17T00:38:21;-2.80;99.90
22678;DHT22;26259;50.214;18.620;2022-12-17T00:41:05;-2.80;99.90
22678;DHT22;26259;50.214;18.620;2022-12-17T00:43:49;-2.80;99.90
22678;DHT22;26259;50.214;18.620;2022-12-17T00:46:33;-2.80;99.90
22678;DHT22;26259;50.214;18.620;2022-12-17T00:49:17;-2.80;99.90
22678;DHT22;26259;50.214;18.620;2022-12-17T00:52:04;-2.80;99.90
22678;DHT22;26259;50.214;18.620;2022-12-17T00:54:48;-2.90;99.90
22678;DHT22;26259;50.214;18.620;2022-12-17T00:57:32;-2.90;99.90
22678;DHT22;26259;50.214;18.620;2022-12-17T01:00:16;-2.80;99.90
22678;DHT22;26259;50.214;18.620;2022-12-17T01:03:09;-2.80;99.90
22678;DHT22;26259;50.214;18.620;2022-12-17T01:05:54;-2.80;99.90
22678;DHT22;26259;50.214;18.620;2022-12-17T01:08:39;-2.90;99.90
22678;DHT22;26259;50.214;18.620;2022-12-17T01:11:23;-2.90;99.90
22678;DHT22;26259;50.214;18.620;2022-12-17T01:14:07;-2.90;99.90
22678;DHT22;26259;50.214;18.620;2022-12-17T01:16:51;-2.90;99.90
22678;DHT22;26259;50.214;18.620;2022-12-17T01:19:35;-2.90;99.90
22678;DHT22;26259;50.214;18.620;2022-12-17T01:22:19;-2.90;99.90
22678;DHT22;26259;50.214;18.620;2022-12-17T01:25:04;-2.90;99.90
22678;DHT22;26259;50.214;18.620;2022-12-17T01:27:49;-2.90;99.90
22678;DHT22;26259;50.214;18.620;2022-12-17T01:30:35;-2.90;99.90
22678;DHT22;26259;50.214;18.620;2022-12-17T01:33:19;-2.90;99.90
22678;DHT22;26259;50.214;18.620;2022-12-17T01:36:03;-2.90;99.90
22678;DHT22;26259;50.214;18.620;2022-12-17T01:38:47;-3.00;99.90
22678;DHT22;26259;50.214;18.620;2022-12-17T01:41:31;-3.00;99.90
22678;DHT22;26259;50.214;18.620;2022-12-17T01:50:33;-3.00;99.90
22678;DHT22;26259;50.214;18.620;2022-12-17T01:53:21;-3.10;99.90
22678;DHT22;26259;50.214;18.620;2022-12-17T01:56:06;-3.10;99.90
22678;DHT22;26259;50.214;18.620;2022-12-17T01:58:51;-3.10;99.90
22678;DHT22;26259;50.214;18.620;2022-12-17T02:01:36;-3.10;99.90
22678;DHT22;26259;50.214;18.620;2022-12-17T02:04:20;-3.10;99.90
22678;DHT22;26259;50.214;18.620;2022-12-17T02:10:53;-3.10;99.90
22678;DHT22;26259;50.214;18.620;2022-12-17T02:16:57;-3.20;99.90
22678;DHT22;26259;50.214;18.620;2022-12-17T02:23:36;-3.20;99.90
22678;DHT22;26259;50.214;18.620;2022-12-17T02:29:20;-3.20;99.90
22678;DHT22;26259;50.214;18.620;2022-12-17T02:32:07;-3.20;99.90
22678;DHT22;26259;50.214;18.620;2022-12-17T02:34:52;-3.30;99.90
22678;DHT22;26259;50.214;18.620;2022-12-17T02:37:37;-3.30;99.90
22678;DHT22;26259;50.214;18.620;2022-12-17T02:40:22;-3.30;99.90
22678;DHT22;26259;50.214;18.620;2022-12-17T02:43:07;-3.30;99.90
22678;DHT22;26259;50.214;18.620;2022-12-17T02:45:54;-3.30;99.90
22678;DHT22;26259;50.214;18.620;2022-12-17T02:48:38;-3.40;99.90
22678;DHT22;26259;50.214;18.620;2022-12-17T02:51:24;-3.40;99.90
22678;DHT22;26259;50.214;18.620;2022-12-17T02:54:09;-3.40;99.90
22678;DHT22;26259;50.214;18.620;2022-12-17T02:56:53;-3.40;99.90
22678;DHT22;26259;50.214;18.620;2022-12-17T02:59:38;-3.40;99.90
22678;DHT22;26259;50.214;18.620;2022-12-17T03:02:22;-3.40;99.90
22678;DHT22;26259;50.214;18.620;2022-12-17T03:05:08;-3.30;99.90
22678;DHT22;26259;50.214;18.620;2022-12-17T03:07:52;-3.30;99.90
22678;DHT22;26259;50.214;18.620;2022-12-17T03:10:36;-3.30;99.90
22678;DHT22;26259;50.214;18.620;2022-12-17T03:13:25;-3.30;99.90
22678;DHT22;26259;50.214;18.620;2022-12-17T03:16:10;-3.20;99.90
22678;DHT22;26259;50.214;18.620;2022-12-17T03:18:56;-3.20;99.90
22678;DHT22;26259;50.214;18.620;2022-12-17T03:21:41;-3.20;99.90
22678;DHT22;26259;50.214;18.620;2022-12-17T03:24:25;-3.20;99.90
22678;DHT22;26259;50.214;18.620;2022-12-17T03:27:09;-3.20;99.90
22678;DHT22;26259;50.214;18.620;2022-12-17T03:29:54;-3.10;99.90
22678;DHT22;26259;50.214;18.620;2022-12-17T03:32:38;-3.10;99.90
22678;DHT22;26259;50.214;18.620;2022-12-17T03:35:22;-3.10;99.90
22678;DHT22;26259;50.214;18.620;2022-12-17T03:38:07;-3.10;99.90
22678;DHT22;26259;50.214;18.620;2022-12-17T03:40:52;-3.10;99.90
22678;DHT22;26259;50.214;18.620;2022-12-17T03:43:36;-3.10;99.90
22678;DHT22;26259;50.214;18.620;2022-12-17T03:46:20;-3.00;99.90
22678;DHT22;26259;50.214;18.620;2022-12-17T03:49:05;-3.00;99.90
22678;DHT22;26259;50.214;18.620;2022-12-17T03:51:49;-3.00;99.90
22678;DHT22;26259;50.214;18.620;2022-12-17T03:54:33;-3.00;99.90
22678;DHT22;26259;50.214;18.620;2022-12-17T03:57:17;-3.00;99.90
22678;DHT22;26259;50.214;18.620;2022-12-17T04:00:02;-3.00;99.90
22678;DHT22;26259;50.214;18.620;2022-12-17T04:02:47;-3.10;99.90
22678;DHT22;26259;50.214;18.620;2022-12-17T04:05:31;-3.00;99.90
22678;DHT22;26259;50.214;18.620;2022-12-17T04:08:15;-3.00;99.90
22678;DHT22;26259;50.214;18.620;2022-12-17T04:11:00;-3.00;99.90
22678;DHT22;26259;50.214;18.620;2022-12-17T04:13:44;-3.10;99.90
22678;DHT22;26259;50.214;18.620;2022-12-17T04:16:28;-3.10;99.90
22678;DHT22;26259;50.214;18.620;2022-12-17T04:19:12;-3.10;99.90
22678;DHT22;26259;50.214;18.620;2022-12-17T04:21:56;-3.10;99.90
22678;DHT22;26259;50.214;18.620;2022-12-17T04:24:40;-3.10;99.90
22678;DHT22;26259;50.214;18.620;2022-12-17T04:27:24;-3.10;99.90
22678;DHT22;26259;50.214;18.620;2022-12-17T04:30:09;-3.10;99.90
22678;DHT22;26259;50.214;18.620;2022-12-17T04:32:54;-3.10;99.90
22678;DHT22;26259;50.214;18.620;2022-12-17T04:35:38;-3.10;99.90
22678;DHT22;26259;50.214;18.620;2022-12-17T04:38:22;-3.10;99.90
22678;DHT22;26259;50.214;18.620;2022-12-17T04:41:06;-3.10;99.90
22678;DHT22;26259;50.214;18.620;2022-12-17T04:43:50;-3.20;99.90
22678;DHT22;26259;50.214;18.620;2022-12-17T04:46:35;-3.20;99.90
22678;DHT22;26259;50.214;18.620;2022-12-17T04:49:19;-3.20;99.90
22678;DHT22;26259;50.214;18.620;2022-12-17T04:52:03;-3.20;99.90
22678;DHT22;26259;50.214;18.620;2022-12-17T04:54:47;-3.30;99.90
22678;DHT22;26259;50.214;18.620;2022-12-17T04:57:32;-3.30;99.90
22678;DHT22;26259;50.214;18.620;2022-12-17T05:00:16;-3.30;99.90
22678;DHT22;26259;50.214;18.620;2022-12-17T05:03:05;-3.30;99.90
22678;DHT22;26259;50.214;18.620;2022-12-17T05:05:50;-3.30;99.90
22678;DHT22;26259;50.214;18.620;2022-12-17T05:08:34;-3.40;99.90
22678;DHT22;26259;50.214;18.620;2022-12-17T05:11:19;-3.40;99.90
22678;DHT22;26259;50.214;18.620;2022-12-17T05:14:03;-3.40;99.90
22678;DHT22;26259;50.214;18.620;2022-12-17T05:16:47;-3.40;99.90
22678;DHT22;26259;50.214;18.620;2022-12-17T05:19:32;-3.30;99.90
22678;DHT22;26259;50.214;18.620;2022-12-17T05:22:16;-3.40;99.90
22678;DHT22;26259;50.214;18.620;2022-12-17T05:25:00;-3.40;99.90
22678;DHT22;26259;50.214;18.620;2022-12-17T05:27:45;-3.40;99.90
22678;DHT22;26259;50.214;18.620;2022-12-17T05:30:30;-3.40;99.90
22678;DHT22;26259;50.214;18.620;2022-12-17T05:33:14;-3.40;99.90
22678;DHT22;26259;50.214;18.620;2022-12-17T05:36:01;-3.40;99.90
22678;DHT22;26259;50.214;18.620;2022-12-17T05:38:48;-3.40;99.90
22678;DHT22;26259;50.214;18.620;2022-12-17T05:41:33;-3.40;99.90
22678;DHT22;26259;50.214;18.620;2022-12-17T05:44:18;-3.40;99.90
22678;DHT22;26259;50.214;18.620;2022-12-17T05:47:02;-3.40;99.90
22678;DHT22;26259;50.214;18.620;2022-12-17T05:49:46;-3.40;99.90
22678;DHT22;26259;50.214;18.620;2022-12-17T05:52:30;-3.40;99.90
22678;DHT22;26259;50.214;18.620;2022-12-17T05:55:15;-3.40;99.90
22678;DHT22;26259;50.214;18.620;2022-12-17T05:58:04;-3.40;99.90
22678;DHT22;26259;50.214;18.620;2022-12-17T06:00:48;-3.50;99.90
22678;DHT22;26259;50.214;18.620;2022-12-17T06:03:33;-3.50;99.90
22678;DHT22;26259;50.214;18.620;2022-12-17T06:06:17;-3.50;99.90
22678;DHT22;26259;50.214;18.620;2022-12-17T06:09:11;-3.50;99.90
22678;DHT22;26259;50.214;18.620;2022-12-17T06:11:56;-3.50;99.90
22678;DHT22;26259;50.214;18.620;2022-12-17T06:14:40;-3.50;99.90
22678;DHT22;26259;50.214;18.620;2022-12-17T06:17:24;-3.40;99.90
22678;DHT22;26259;50.214;18.620;2022-12-17T06:20:09;-3.40;99.90
22678;DHT22;26259;50.214;18.620;2022-12-17T06:23:06;-3.50;99.90
22678;DHT22;26259;50.214;18.620;2022-12-17T06:25:52;-3.50;99.90
22678;DHT22;26259;50.214;18.620;2022-12-17T06:28:37;-3.50;99.90
22678;DHT22;26259;50.214;18.620;2022-12-17T06:31:21;-3.50;99.90
22678;DHT22;26259;50.214;18.620;2022-12-17T06:34:05;-3.50;99.90
22678;DHT22;26259;50.214;18.620;2022-12-17T06:36:49;-3.50;99.90
22678;DHT22;26259;50.214;18.620;2022-12-17T06:39:33;-3.50;99.90
22678;DHT22;26259;50.214;18.620;2022-12-17T06:42:18;-3.50;99.90
22678;DHT22;26259;50.214;18.620;2022-12-17T06:45:02;-3.50;99.90
22678;DHT22;26259;50.214;18.620;2022-12-17T06:47:46;-3.60;99.90
22678;DHT22;26259;50.214;18.620;2022-12-17T06:50:30;-3.50;99.90
22678;DHT22;26259;50.214;18.620;2022-12-17T06:53:15;-3.50;99.90
22678;DHT22;26259;50.214;18.620;2022-12-17T06:55:59;-3.50;99.90
22678;DHT22;26259;50.214;18.620;2022-12-17T06:58:43;-3.60;99.90
22678;DHT22;26259;50.214;18.620;2022-12-17T07:01:28;-3.60;99.90
22678;DHT22;26259;50.214;18.620;2022-12-17T07:04:12;-3.50;99.90
22678;DHT22;26259;50.214;18.620;2022-12-17T07:06:57;-3.50;99.90
22678;DHT22;26259;50.214;18.620;2022-12-17T07:09:41;-3.60;99.90
22678;DHT22;26259;50.214;18.620;2022-12-17T07:12:25;-3.60;99.90
22678;DHT22;26259;50.214;18.620;2022-12-17T07:15:10;-3.60;99.90
22678;DHT22;26259;50.214;18.620;2022-12-17T07:17:56;-3.70;99.90
22678;DHT22;26259;50.214;18.620;2022-12-17T07:20:41;-3.60;99.90
22678;DHT22;26259;50.214;18.620;2022-12-17T07:23:25;-3.60;99.90
22678;DHT22;26259;50.214;18.620;2022-12-17T07:26:09;-3.50;99.90
22678;DHT22;26259;50.214;18.620;2022-12-17T07:28:54;-3.50;99.90
22678;DHT22;26259;50.214;18.620;2022-12-17T07:31:38;-3.40;99.90
22678;DHT22;26259;50.214;18.620;2022-12-17T07:34:22;-3.40;99.90
22678;DHT22;26259;50.214;18.620;2022-12-17T07:37:06;-3.40;99.90
22678;DHT22;26259;50.214;18.620;2022-12-17T07:39:50;-3.40;99.90
22678;DHT22;26259;50.214;18.620;2022-12-17T07:42:35;-3.40;99.90
22678;DHT22;26259;50.214;18.620;2022-12-17T07:45:19;-3.40;99.90
22678;DHT22;26259;50.214;18.620;2022-12-17T07:48:03;-3.40;99.90
22678;DHT22;26259;50.214;18.620;2022-12-17T07:50:51;-3.40;99.90
22678;DHT22;26259;50.214;18.620;2022-12-17T07:53:35;-3.40;99.90
22678;DHT22;26259;50.214;18.620;2022-12-17T07:56:20;-3.40;99.90
22678;DHT22;26259;50.214;18.620;2022-12-17T07:59:04;-3.30;99.90
22678;DHT22;26259;50.214;18.620;2022-12-17T08:01:48;-3.30;99.90
22678;DHT22;26259;50.214;18.620;2022-12-17T08:04:33;-3.20;99.90
22678;DHT22;26259;50.214;18.620;2022-12-17T08:07:17;-3.20;99.90
22678;DHT22;26259;50.214;18.620;2022-12-17T08:10:02;-3.20;99.90
22678;DHT22;26259;50.214;18.620;2022-12-17T08:12:57;-3.20;99.90
22678;DHT22;26259;50.214;18.620;2022-12-17T08:15:41;-3.00;99.90
22678;DHT22;26259;50.214;18.620;2022-12-17T08:18:26;-3.00;99.90
22678;DHT22;26259;50.214;18.620;2022-12-17T08:21:11;-3.00;99.90
22678;DHT22;26259;50.214;18.620;2022-12-17T08:23:55;-3.00;99.90
22678;DHT22;26259;50.214;18.620;2022-12-17T08:26:39;-3.00;99.90
22678;DHT22;26259;50.214;18.620;2022-12-17T08:29:23;-2.90;99.90
22678;DHT22;26259;50.214;18.620;2022-12-17T08:32:07;-2.90;99.90
22678;DHT22;26259;50.214;18.620;2022-12-17T08:34:52;-2.90;99.90
22678;DHT22;26259;50.214;18.620;2022-12-17T08:37:36;-2.90;99.90
22678;DHT22;26259;50.214;18.620;2022-12-17T08:40:20;-2.90;99.90
22678;DHT22;26259;50.214;18.620;2022-12-17T08:43:04;-2.80;99.90
22678;DHT22;26259;50.214;18.620;2022-12-17T08:45:50;-2.80;99.90
22678;DHT22;26259;50.214;18.620;2022-12-17T08:48:35;-2.70;99.90
22678;DHT22;26259;50.214;18.620;2022-12-17T08:51:19;-2.50;99.90
22678;DHT22;26259;50.214;18.620;2022-12-17T08:54:04;-2.50;99.90
22678;DHT22;26259;50.214;18.620;2022-12-17T08:56:48;-2.40;99.90
22678;DHT22;26259;50.214;18.620;2022-12-17T08:59:32;-2.50;99.90
22678;DHT22;26259;50.214;18.620;2022-12-17T09:02:16;-2.50;99.90
22678;DHT22;26259;50.214;18.620;2022-12-17T09:05:00;-2.50;99.90
22678;DHT22;26259;50.214;18.620;2022-12-17T09:07:44;-2.60;99.90
22678;DHT22;26259;50.214;18.620;2022-12-17T09:10:28;-2.60;99.90
22678;DHT22;26259;50.214;18.620;2022-12-17T09:13:13;-2.60;99.90
22678;DHT22;26259;50.214;18.620;2022-12-17T09:15:57;-2.40;99.90
22678;DHT22;26259;50.214;18.620;2022-12-17T09:18:42;-2.20;99.90
22678;DHT22;26259;50.214;18.620;2022-12-17T09:21:28;-2.00;99.90
22678;DHT22;26259;50.214;18.620;2022-12-17T09:24:12;-1.90;99.90
22678;DHT22;26259;50.214;18.620;2022-12-17T09:26:57;-1.80;99.90
22678;DHT22;26259;50.214;18.620;2022-12-17T09:29:41;-1.70;99.90
22678;DHT22;26259;50.214;18.620;2022-12-17T09:32:25;-1.90;99.90
22678;DHT22;26259;50.214;18.620;2022-12-17T09:35:10;-1.90;99.90
22678;DHT22;26259;50.214;18.620;2022-12-17T09:37:55;-2.00;99.90
22678;DHT22;26259;50.214;18.620;2022-12-17T09:40:41;-2.00;99.90
22678;DHT22;26259;50.214;18.620;2022-12-17T09:43:48;-2.10;99.90
22678;DHT22;26259;50.214;18.620;2022-12-17T09:46:42;-2.10;99.90
22678;DHT22;26259;50.214;18.620;2022-12-17T09:49:29;-2.10;99.90
22678;DHT22;26259;50.214;18.620;2022-12-17T09:52:15;-2.00;99.90
22678;DHT22;26259;50.214;18.620;2022-12-17T09:55:02;-1.90;99.90
22678;DHT22;26259;50.214;18.620;2022-12-17T09:57:48;-1.90;99.90
22678;DHT22;26259;50.214;18.620;2022-12-17T10:00:33;-1.90;99.90
22678;DHT22;26259;50.214;18.620;2022-12-17T10:03:20;-2.00;99.90
22678;DHT22;26259;50.214;18.620;2022-12-17T10:09:01;-2.10;99.90
22678;DHT22;26259;50.214;18.620;2022-12-17T10:11:46;-2.10;99.90
22678;DHT22;26259;50.214;18.620;2022-12-17T10:14:30;-2.10;99.90
22678;DHT22;26259;50.214;18.620;2022-12-17T10:17:17;-2.20;99.90
22678;DHT22;26259;50.214;18.620;2022-12-17T10:20:04;-2.20;99.90
22678;DHT22;26259;50.214;18.620;2022-12-17T10:22:56;-2.10;99.90
22678;DHT22;26259;50.214;18.620;2022-12-17T10:25:49;-2.00;99.90
22678;DHT22;26259;50.214;18.620;2022-12-17T10:28:33;-2.00;99.90
22678;DHT22;26259;50.214;18.620;2022-12-17T10:31:20;-2.00;99.90
22678;DHT22;26259;50.214;18.620;2022-12-17T10:34:13;-2.00;99.90
22678;DHT22;26259;50.214;18.620;2022-12-17T10:36:58;-2.00;99.90
22678;DHT22;26259;50.214;18.620;2022-12-17T10:39:55;-1.90;99.90
22678;DHT22;26259;50.214;18.620;2022-12-17T10:42:41;-1.80;99.90
22678;DHT22;26259;50.214;18.620;2022-12-17T10:45:32;-1.90;99.90
22678;DHT22;26259;50.214;18.620;2022-12-17T10:48:24;-1.90;99.90
22678;DHT22;26259;50.214;18.620;2022-12-17T10:51:35;-1.80;99.90
22678;DHT22;26259;50.214;18.620;2022-12-17T10:54:28;-1.90;99.90
22678;DHT22;26259;50.214;18.620;2022-12-17T10:57:29;-1.80;99.90
22678;DHT22;26259;50.214;18.620;2022-12-17T11:00:28;-1.90;99.90
22678;DHT22;26259;50.214;18.620;2022-12-17T11:06:26;-1.80;99.90
22678;DHT22;26259;50.214;18.620;2022-12-17T11:12:13;-1.90;99.90
22678;DHT22;26259;50.214;18.620;2022-12-17T11:15:06;-2.00;99.90
22678;DHT22;26259;50.214;18.620;2022-12-17T11:17:52;-2.00;99.90
22678;DHT22;26259;50.214;18.620;2022-12-17T11:21:05;-1.90;99.90
22678;DHT22;26259;50.214;18.620;2022-12-17T11:23:52;-1.90;99.90
22678;DHT22;26259;50.214;18.620;2022-12-17T11:26:38;-2.00;99.90
22678;DHT22;26259;50.214;18.620;2022-12-17T11:29:26;-2.00;99.90
22678;DHT22;26259;50.214;18.620;2022-12-17T11:38:40;-2.10;99.90
22678;DHT22;26259;50.214;18.620;2022-12-17T11:41:39;-2.00;99.90
22678;DHT22;26259;50.214;18.620;2022-12-17T11:47:46;-2.00;99.90
22678;DHT22;26259;50.214;18.620;2022-12-17T11:54:24;-2.20;99.90
22678;DHT22;26259;50.214;18.620;2022-12-17T11:56:55;-2.30;99.90
22678;DHT22;26259;50.214;18.620;2022-12-17T11:59:51;-2.20;99.90
22678;DHT22;26259;50.214;18.620;2022-12-17T12:05:48;-2.20;99.90
22678;DHT22;26259;50.214;18.620;2022-12-17T12:11:43;-2.20;99.90
22678;DHT22;26259;50.214;18.620;2022-12-17T12:17:47;-2.30;99.90
22678;DHT22;26259;50.214;18.620;2022-12-17T12:21:08;-2.30;99.90
22678;DHT22;26259;50.214;18.620;2022-12-17T12:27:12;-2.30;99.90
22678;DHT22;26259;50.214;18.620;2022-12-17T12:30:22;-2.30;99.90
22678;DHT22;26259;50.214;18.620;2022-12-17T12:33:22;-2.30;99.90
22678;DHT22;26259;50.214;18.620;2022-12-17T12:36:11;-2.30;99.90
22678;DHT22;26259;50.214;18.620;2022-12-17T12:38:57;-2.30;99.90
22678;DHT22;26259;50.214;18.620;2022-12-17T12:41:52;-2.30;99.90
22678;DHT22;26259;50.214;18.620;2022-12-17T12:50:49;-2.30;99.90
22678;DHT22;26259;50.214;18.620;2022-12-17T12:53:37;-2.20;99.90
22678;DHT22;26259;50.214;18.620;2022-12-17T12:56:27;-2.20;99.90
22678;DHT22;26259;50.214;18.620;2022-12-17T12:59:30;-2.30;99.90
22678;DHT22;26259;50.214;18.620;2022-12-17T13:02:29;-2.30;99.90
22678;DHT22;26259;50.214;18.620;2022-12-17T13:05:33;-2.20;99.90
22678;DHT22;26259;50.214;18.620;2022-12-17T13:08:19;-2.20;99.90
22678;DHT22;26259;50.214;18.620;2022-12-17T13:10:46;-2.30;99.90
22678;DHT22;26259;50.214;18.620;2022-12-17T13:15:53;-2.30;99.90
22678;DHT22;26259;50.214;18.620;2022-12-17T13:18:36;-2.30;99.90
22678;DHT22;26259;50.214;18.620;2022-12-17T13:21:23;-2.30;99.90
22678;DHT22;26259;50.214;18.620;2022-12-17T13:23:49;-2.30;99.90
22678;DHT22;26259;50.214;18.620;2022-12-17T13:32:14;-2.30;99.90
22678;DHT22;26259;50.214;18.620;2022-12-17T13:34:58;-2.30;99.90
22678;DHT22;26259;50.214;18.620;2022-12-17T13:42:49;-2.20;99.90
22678;DHT22;26259;50.214;18.620;2022-12-17T13:45:17;-2.20;99.90
22678;DHT22;26259;50.214;18.620;2022-12-17T13:47:43;-2.30;99.90
22678;DHT22;26259;50.214;18.620;2022-12-17T13:50:23;-2.40;99.90
22678;DHT22;26259;50.214;18.620;2022-12-17T13:52:48;-2.30;99.90
22678;DHT22;26259;50.214;18.620;2022-12-17T13:55:25;-2.40;99.90
22678;DHT22;26259;50.214;18.620;2022-12-17T13:57:52;-2.40;99.90
22678;DHT22;26259;50.214;18.620;2022-12-17T14:00:29;-2.40;99.90
22678;DHT22;26259;50.214;18.620;2022-12-17T14:02:55;-2.60;99.90
22678;DHT22;26259;50.214;18.620;2022-12-17T14:05:29;-2.60;99.90
22678;DHT22;26259;50.214;18.620;2022-12-17T14:07:59;-2.70;99.90
22678;DHT22;26259;50.214;18.620;2022-12-17T14:10:25;-2.70;99.90
22678;DHT22;26259;50.214;18.620;2022-12-17T14:13:07;-2.70;99.90
22678;DHT22;26259;50.214;18.620;2022-12-17T14:15:33;-2.70;99.90
22678;DHT22;26259;50.214;18.620;2022-12-17T14:17:59;-2.80;99.90
22678;DHT22;26259;50.214;18.620;2022-12-17T14:20:35;-2.90;99.90
22678;DHT22;26259;50.214;18.620;2022-12-17T14:23:06;-2.90;99.90
22678;DHT22;26259;50.214;18.620;2022-12-17T14:25:39;-2.90;99.90
22678;DHT22;26259;50.214;18.620;2022-12-17T14:28:31;-3.00;99.90
22678;DHT22;26259;50.214;18.620;2022-12-17T14:31:24;-3.00;99.90
22678;DHT22;26259;50.214;18.620;2022-12-17T14:34:19;-3.10;99.90
22678;DHT22;26259;50.214;18.620;2022-12-17T14:36:44;-3.10;99.90
22678;DHT22;26259;50.214;18.620;2022-12-17T14:41:42;-3.10;99.90
22678;DHT22;26259;50.214;18.620;2022-12-17T14:44:28;-3.10;99.90
22678;DHT22;26259;50.214;18.620;2022-12-17T14:52:43;-3.30;99.90
22678;DHT22;26259;50.214;18.620;2022-12-17T15:03:10;-3.40;99.90
22678;DHT22;26259;50.214;18.620;2022-12-17T15:05:38;-3.40;99.90
22678;DHT22;26259;50.214;18.620;2022-12-17T15:08:04;-3.40;99.90
22678;DHT22;26259;50.214;18.620;2022-12-17T15:10:30;-3.40;99.90
22678;DHT22;26259;50.214;18.620;2022-12-17T15:12:56;-3.40;99.90
22678;DHT22;26259;50.214;18.620;2022-12-17T15:15:21;-3.40;99.90
22678;DHT22;26259;50.214;18.620;2022-12-17T15:17:47;-3.40;99.90
22678;DHT22;26259;50.214;18.620;2022-12-17T15:20:18;-3.40;99.90
22678;DHT22;26259;50.214;18.620;2022-12-17T15:22:45;-3.40;99.90
22678;DHT22;26259;50.214;18.620;2022-12-17T15:25:16;-3.40;99.90
22678;DHT22;26259;50.214;18.620;2022-12-17T15:27:42;-3.40;99.90
22678;DHT22;26259;50.214;18.620;2022-12-17T15:30:17;-3.40;99.90
22678;DHT22;26259;50.214;18.620;2022-12-17T15:32:44;-3.40;99.90
22678;DHT22;26259;50.214;18.620;2022-12-17T15:35:11;-3.40;99.90
22678;DHT22;26259;50.214;18.620;2022-12-17T15:37:37;-3.40;99.90
22678;DHT22;26259;50.214;18.620;2022-12-17T15:40:04;-3.40;99.90
22678;DHT22;26259;50.214;18.620;2022-12-17T15:42:30;-3.40;99.90
22678;DHT22;26259;50.214;18.620;2022-12-17T15:45:14;-3.40;99.90
22678;DHT22;26259;50.214;18.620;2022-12-17T15:47:40;-3.40;99.90
22678;DHT22;26259;50.214;18.620;2022-12-17T15:50:06;-3.40;99.90
22678;DHT22;26259;50.214;18.620;2022-12-17T15:52:32;-3.40;99.90
22678;DHT22;26259;50.214;18.620;2022-12-17T15:54:57;-3.40;99.90
22678;DHT22;26259;50.214;18.620;2022-12-17T15:57:23;-3.40;99.90
22678;DHT22;26259;50.214;18.620;2022-12-17T15:59:50;-3.40;99.90
22678;DHT22;26259;50.214;18.620;2022-12-17T16:02:15;-3.40;99.90
22678;DHT22;26259;50.214;18.620;2022-12-17T16:04:41;-3.40;99.90
22678;DHT22;26259;50.214;18.620;2022-12-17T16:07:07;-3.40;99.90
22678;DHT22;26259;50.214;18.620;2022-12-17T16:09:32;-3.40;99.90
22678;DHT22;26259;50.214;18.620;2022-12-17T16:11:58;-3.40;99.90
22678;DHT22;26259;50.214;18.620;2022-12-17T16:14:24;-3.40;99.90
22678;DHT22;26259;50.214;18.620;2022-12-17T16:16:50;-3.40;99.90
22678;DHT22;26259;50.214;18.620;2022-12-17T16:19:16;-3.40;99.90
22678;DHT22;26259;50.214;18.620;2022-12-17T16:21:42;-3.30;99.90
22678;DHT22;26259;50.214;18.620;2022-12-17T16:24:08;-3.30;99.90
22678;DHT22;26259;50.214;18.620;2022-12-17T16:26:35;-3.30;99.90
22678;DHT22;26259;50.214;18.620;2022-12-17T16:29:01;-3.30;99.90
22678;DHT22;26259;50.214;18.620;2022-12-17T16:31:27;-3.30;99.90
22678;DHT22;26259;50.214;18.620;2022-12-17T16:33:52;-3.30;99.90
22678;DHT22;26259;50.214;18.620;2022-12-17T16:36:19;-3.30;99.90
22678;DHT22;26259;50.214;18.620;2022-12-17T16:38:48;-3.40;99.90
22678;DHT22;26259;50.214;18.620;2022-12-17T16:41:15;-3.40;99.90
22678;DHT22;26259;50.214;18.620;2022-12-17T16:43:41;-3.50;99.90
22678;DHT22;26259;50.214;18.620;2022-12-17T16:46:32;-3.50;99.90
22678;DHT22;26259;50.214;18.620;2022-12-17T16:49:10;-3.50;99.90
22678;DHT22;26259;50.214;18.620;2022-12-17T16:51:36;-3.50;99.90
22678;DHT22;26259;50.214;18.620;2022-12-17T16:54:10;-3.50;99.90
22678;DHT22;26259;50.214;18.620;2022-12-17T16:56:37;-3.50;99.90
22678;DHT22;26259;50.214;18.620;2022-12-17T16:59:04;-3.60;99.90
22678;DHT22;26259;50.214;18.620;2022-12-17T17:01:30;-3.60;99.90
22678;DHT22;26259;50.214;18.620;2022-12-17T17:03:56;-3.60;99.90
22678;DHT22;26259;50.214;18.620;2022-12-17T17:06:22;-3.60;99.90
22678;DHT22;26259;50.214;18.620;2022-12-17T17:08:48;-3.60;99.90
22678;DHT22;26259;50.214;18.620;2022-12-17T17:11:19;-3.60;99.90
22678;DHT22;26259;50.214;18.620;2022-12-17T17:13:53;-3.60;99.90
22678;DHT22;26259;50.214;18.620;2022-12-17T17:16:21;-3.60;99.90
22678;DHT22;26259;50.214;18.620;2022-12-17T17:18:48;-3.70;99.90
22678;DHT22;26259;50.214;18.620;2022-12-17T17:23:40;-3.70;99.90
22678;DHT22;26259;50.214;18.620;2022-12-17T17:26:06;-3.70;99.90
22678;DHT22;26259;50.214;18.620;2022-12-17T17:28:32;-3.70;99.90
22678;DHT22;26259;50.214;18.620;2022-12-17T17:31:02;-3.70;99.90
22678;DHT22;26259;50.214;18.620;2022-12-17T17:33:36;-3.70;99.90
22678;DHT22;26259;50.214;18.620;2022-12-17T17:36:12;-3.70;99.90
22678;DHT22;26259;50.214;18.620;2022-12-17T17:38:39;-3.70;99.90
22678;DHT22;26259;50.214;18.620;2022-12-17T17:41:07;-3.80;99.90
22678;DHT22;26259;50.214;18.620;2022-12-17T17:43:33;-3.70;99.90
22678;DHT22;26259;50.214;18.620;2022-12-17T17:46:15;-3.80;99.90
22678;DHT22;26259;50.214;18.620;2022-12-17T17:48:42;-3.80;99.90
22678;DHT22;26259;50.214;18.620;2022-12-17T17:51:11;-3.80;99.90
22678;DHT22;26259;50.214;18.620;2022-12-17T17:53:37;-3.80;99.90
22678;DHT22;26259;50.214;18.620;2022-12-17T17:56:05;-3.80;99.90
22678;DHT22;26259;50.214;18.620;2022-12-17T17:58:31;-3.90;99.90
22678;DHT22;26259;50.214;18.620;2022-12-17T18:00:57;-3.90;99.90
22678;DHT22;26259;50.214;18.620;2022-12-17T18:03:23;-3.90;99.90
22678;DHT22;26259;50.214;18.620;2022-12-17T18:05:49;-3.90;99.90
22678;DHT22;26259;50.214;18.620;2022-12-17T18:08:14;-3.90;99.90
22678;DHT22;26259;50.214;18.620;2022-12-17T18:10:40;-3.90;99.90
22678;DHT22;26259;50.214;18.620;2022-12-17T18:13:06;-3.90;99.90
22678;DHT22;26259;50.214;18.620;2022-12-17T18:15:50;-3.90;99.90